createdAt,value
2018-10-03T00:04:00.000Z,99039
2018-10-03T00:09:00.000Z,99047
2018-10-03T00:14:00.000Z,99043
2018-10-03T00:19:00.000Z,99029
2018-10-03T00:24:00.000Z,99038
2018-10-03T00:29:00.000Z,99028
2018-10-03T00:34:00.000Z,99042
2018-10-03T00:39:00.000Z,99025
2018-10-03T00:44:00.000Z,99030
2018-10-03T00:49:00.000Z,99050
2018-10-03T00:54:00.000Z,99051
2018-10-03T00:59:00.000Z,99048
2018-10-03T01:04:00.000Z,99041
2018-10-03T01:09:00.000Z,99041
2018-10-03T01:14:00.000Z,99063
2018-10-03T01:19:00.000Z,99067
2018-10-03T01:24:00.000Z,99060
2018-10-03T01:29:00.000Z,99057
2018-10-03T01:34:00.000Z,99057
2018-10-03T01:39:00.000Z,99066
2018-10-03T01:44:00.000Z,99077
2018-10-03T01:49:00.000Z,99065
2018-10-03T01:54:00.000Z,99082
2018-10-03T01:59:00.000Z,99080
2018-10-03T02:04:00.000Z,99068
2018-10-03T02:09:00.000Z,99078
2018-10-03T02:14:00.000Z,99081
2018-10-03T02:19:00.000Z,99089
2018-10-03T02:24:00.000Z,99074
2018-10-03T02:29:00.000Z,99073
2018-10-03T02:34:00.000Z,99057
2018-10-03T02:39:00.000Z,99072
2018-10-03T02:44:00.000Z,99076
2018-10-03T02:49:00.000Z,99088
2018-10-03T02:54:00.000Z,99071
2018-10-03T02:59:00.000Z,99068
2018-10-03T03:04:00.000Z,99069
2018-10-03T03:09:00.000Z,99081
2018-10-03T03:14:00.000Z,99080
2018-10-03T03:19:00.000Z,99086
2018-10-03T03:24:00.000Z,99097
2018-10-03T03:29:00.000Z,99103
2018-10-03T03:34:00.000Z,99088
2018-10-03T03:39:00.000Z,99110
2018-10-03T03:44:00.000Z,99116
2018-10-03T03:49:00.000Z,99121
2018-10-03T03:54:00.000Z,99122
2018-10-03T03:59:00.000Z,99113
2018-10-03T04:04:00.000Z,99117
2018-10-03T04:09:00.000Z,99104
2018-10-03T04:14:00.000Z,99105
2018-10-03T04:19:00.000Z,99097
2018-10-03T04:25:00.000Z,99100
2018-10-03T04:30:00.000Z,99109
2018-10-03T04:35:00.000Z,99107
2018-10-03T04:40:00.000Z,99104
2018-10-03T04:45:00.000Z,99088
2018-10-03T04:50:00.000Z,99072
2018-10-03T04:55:00.000Z,99061
2018-10-03T05:00:00.000Z,99087
2018-10-03T05:05:00.000Z,99102
2018-10-03T05:10:00.000Z,99102
2018-10-03T05:15:00.000Z,99100
2018-10-03T05:20:00.000Z,99101
2018-10-03T05:25:00.000Z,99094
2018-10-03T05:30:00.000Z,99102
2018-10-03T05:35:00.000Z,99087
2018-10-03T05:40:00.000Z,99093
2018-10-03T05:45:00.000Z,99102
2018-10-03T05:50:00.000Z,99101
2018-10-03T05:55:00.000Z,99099
2018-10-03T06:00:00.000Z,99097
2018-10-03T06:05:00.000Z,99121
2018-10-03T06:10:00.000Z,99120
2018-10-03T06:15:00.000Z,99105
2018-10-03T06:20:00.000Z,99112
2018-10-03T06:25:00.000Z,99126
2018-10-03T06:30:00.000Z,99125
2018-10-03T06:35:00.000Z,99129
2018-10-03T06:40:00.000Z,99124
2018-10-03T06:45:00.000Z,99154
2018-10-03T06:50:00.000Z,99140
2018-10-03T06:55:00.000Z,99137
2018-10-03T07:00:00.000Z,99141
2018-10-03T07:05:00.000Z,99150
2018-10-03T07:10:00.000Z,99140
2018-10-03T07:15:00.000Z,99155
2018-10-03T07:20:00.000Z,99148
2018-10-03T07:25:00.000Z,99160
2018-10-03T07:30:00.000Z,99150
2018-10-03T07:35:00.000Z,99162
2018-10-03T07:40:00.000Z,99155
2018-10-03T07:45:00.000Z,99159
2018-10-03T07:50:00.000Z,99155
2018-10-03T07:55:00.000Z,99162
2018-10-03T08:00:00.000Z,99142
2018-10-03T08:05:00.000Z,99148
2018-10-03T08:10:00.000Z,99159
2018-10-03T08:15:00.000Z,99154
2018-10-03T08:20:00.000Z,99138
2018-10-03T08:25:00.000Z,99152
2018-10-03T08:30:00.000Z,99150
2018-10-03T08:35:00.000Z,99153
2018-10-03T08:40:00.000Z,99159
2018-10-03T08:45:00.000Z,99178
2018-10-03T08:50:00.000Z,99164
2018-10-03T08:55:00.000Z,99160
2018-10-03T09:00:00.000Z,99162
2018-10-03T09:05:00.000Z,99162
2018-10-03T09:10:00.000Z,99170
2018-10-03T09:15:00.000Z,99164
2018-10-03T09:20:00.000Z,99163
2018-10-03T09:25:00.000Z,99167
2018-10-03T09:30:00.000Z,99167
2018-10-03T09:35:00.000Z,99172
2018-10-03T09:40:00.000Z,99162
2018-10-03T09:45:00.000Z,99168
2018-10-03T09:50:00.000Z,99153
2018-10-03T09:55:00.000Z,99160
2018-10-03T10:00:00.000Z,99151
2018-10-03T10:05:00.000Z,99163
2018-10-03T10:10:00.000Z,99175
2018-10-03T10:15:00.000Z,99176
2018-10-03T10:20:00.000Z,99186
2018-10-03T10:26:00.000Z,99189
2018-10-03T10:31:00.000Z,99184
2018-10-03T10:36:00.000Z,99188
2018-10-03T10:41:00.000Z,99173
2018-10-03T10:46:00.000Z,99167
2018-10-03T10:51:00.000Z,99176
2018-10-03T10:56:00.000Z,99149
2018-10-03T11:01:00.000Z,99156
2018-10-03T11:06:00.000Z,99167
2018-10-03T11:11:00.000Z,99154
2018-10-03T11:16:00.000Z,99147
2018-10-03T11:21:00.000Z,99157
2018-10-03T11:26:00.000Z,99162
2018-10-03T11:31:00.000Z,99150
2018-10-03T11:36:00.000Z,99150
2018-10-03T11:41:00.000Z,99152
2018-10-03T11:46:00.000Z,99139
2018-10-03T11:51:00.000Z,99134
2018-10-03T11:56:00.000Z,99135
2018-10-03T12:01:00.000Z,99146
2018-10-03T12:06:00.000Z,99126
2018-10-03T12:11:00.000Z,99137
2018-10-03T12:16:00.000Z,99125
2018-10-03T12:21:00.000Z,99126
2018-10-03T12:26:00.000Z,99145
2018-10-03T12:31:00.000Z,99146
2018-10-03T12:36:00.000Z,99144
2018-10-03T12:41:00.000Z,99122
2018-10-03T12:46:00.000Z,99135
2018-10-03T12:51:00.000Z,99130
2018-10-03T12:56:00.000Z,99131
2018-10-03T13:01:00.000Z,99140
2018-10-03T13:06:00.000Z,99147
2018-10-03T13:11:00.000Z,99150
2018-10-03T13:16:00.000Z,99138
2018-10-03T13:21:00.000Z,99125
2018-10-03T13:26:00.000Z,99151
2018-10-03T13:31:00.000Z,99152
2018-10-03T13:36:00.000Z,99153
2018-10-03T13:41:00.000Z,99153
2018-10-03T13:46:00.000Z,99154
2018-10-03T13:51:00.000Z,99149
2018-10-03T13:56:00.000Z,99148
2018-10-03T14:01:00.000Z,99147
2018-10-03T14:06:00.000Z,99131
2018-10-03T14:11:00.000Z,99167
2018-10-03T14:16:00.000Z,99151
2018-10-03T14:21:00.000Z,99163
2018-10-03T14:26:00.000Z,99164
2018-10-03T14:31:00.000Z,99151
2018-10-03T14:36:00.000Z,99163
2018-10-03T14:41:00.000Z,99163
2018-10-03T14:46:00.000Z,99176
2018-10-03T14:51:00.000Z,99177
2018-10-03T14:56:00.000Z,99175
2018-10-03T15:01:00.000Z,99204
2018-10-03T15:06:00.000Z,99199
2018-10-03T15:11:00.000Z,99199
2018-10-03T15:16:00.000Z,99207
2018-10-03T15:21:00.000Z,99203
2018-10-03T15:26:00.000Z,99233
2018-10-03T15:31:00.000Z,99232
2018-10-03T15:36:00.000Z,99222
2018-10-03T15:41:00.000Z,99237
2018-10-03T15:46:00.000Z,99239
2018-10-03T15:51:00.000Z,99250
2018-10-03T15:56:00.000Z,99247
2018-10-03T16:01:00.000Z,99253
2018-10-03T16:06:00.000Z,99260
2018-10-03T16:11:00.000Z,99268
2018-10-03T16:16:00.000Z,99277
2018-10-03T16:22:00.000Z,99280
2018-10-03T16:27:00.000Z,99287
2018-10-03T16:32:00.000Z,99307
2018-10-03T16:37:00.000Z,99306
2018-10-03T16:42:00.000Z,99315
2018-10-03T16:47:00.000Z,99319
2018-10-03T16:52:00.000Z,99339
2018-10-03T16:57:00.000Z,99349
2018-10-03T17:02:00.000Z,99366
2018-10-03T17:07:00.000Z,99365
2018-10-03T17:12:00.000Z,99382
2018-10-03T17:17:00.000Z,99383
2018-10-03T17:22:00.000Z,99392
2018-10-03T17:27:00.000Z,99398
2018-10-03T17:32:00.000Z,99407
2018-10-03T17:37:00.000Z,99413
2018-10-03T17:42:00.000Z,99408
2018-10-03T17:47:00.000Z,99427
2018-10-03T17:52:00.000Z,99416
2018-10-03T17:57:00.000Z,99437
2018-10-03T18:02:00.000Z,99448
2018-10-03T18:07:00.000Z,99450
2018-10-03T18:12:00.000Z,99453
2018-10-03T18:17:00.000Z,99447
2018-10-03T18:22:00.000Z,99462
2018-10-03T18:27:00.000Z,99459
2018-10-03T18:32:00.000Z,99467
2018-10-03T18:37:00.000Z,99481
2018-10-03T18:42:00.000Z,99480
2018-10-03T18:47:00.000Z,99490
2018-10-03T18:52:00.000Z,99494
2018-10-03T18:57:00.000Z,99506
2018-10-03T19:02:00.000Z,99525
2018-10-03T19:07:00.000Z,99519
2018-10-03T19:12:00.000Z,99521
2018-10-03T19:17:00.000Z,99524
2018-10-03T19:22:00.000Z,99533
2018-10-03T19:27:00.000Z,99541
2018-10-03T19:32:00.000Z,99552
2018-10-03T19:37:00.000Z,99549
2018-10-03T19:42:00.000Z,99563
2018-10-03T19:47:00.000Z,99563
2018-10-03T19:52:00.000Z,99580
2018-10-03T19:57:00.000Z,99578
2018-10-03T20:02:00.000Z,99581
2018-10-03T20:07:00.000Z,99582
2018-10-03T20:12:00.000Z,99588
2018-10-03T20:17:00.000Z,99596
2018-10-03T20:22:00.000Z,99605
2018-10-03T20:27:00.000Z,99618
2018-10-03T20:32:00.000Z,99625
2018-10-03T20:37:00.000Z,99636
2018-10-03T20:42:00.000Z,99641
2018-10-03T20:47:00.000Z,99638
2018-10-03T20:52:00.000Z,99643
2018-10-03T20:57:00.000Z,99655
2018-10-03T21:02:00.000Z,99652
2018-10-03T21:07:00.000Z,99659
2018-10-03T21:12:00.000Z,99658
2018-10-03T21:17:00.000Z,99667
2018-10-03T21:22:00.000Z,99676
2018-10-03T21:27:00.000Z,99681
2018-10-03T21:32:00.000Z,99685
2018-10-03T21:37:00.000Z,99699
2018-10-03T21:43:00.000Z,99700
2018-10-03T21:48:00.000Z,99700
2018-10-03T21:53:00.000Z,99700
2018-10-03T21:58:00.000Z,99702
2018-10-03T22:03:00.000Z,99711
2018-10-03T22:08:00.000Z,99718
2018-10-03T22:13:00.000Z,99720
2018-10-03T22:18:00.000Z,99714
2018-10-03T22:23:00.000Z,99712
2018-10-03T22:28:00.000Z,99721
2018-10-03T22:33:00.000Z,99724
2018-10-03T22:38:00.000Z,99722
2018-10-03T22:43:00.000Z,99725
2018-10-03T22:48:00.000Z,99736
2018-10-03T22:53:00.000Z,99743
2018-10-03T22:58:00.000Z,99740
2018-10-03T23:03:00.000Z,99750
2018-10-03T23:08:00.000Z,99745
2018-10-03T23:13:00.000Z,99748
2018-10-03T23:18:00.000Z,99749
2018-10-03T23:23:00.000Z,99756
2018-10-03T23:28:00.000Z,99760
2018-10-03T23:33:00.000Z,99764
2018-10-03T23:38:00.000Z,99765
2018-10-03T23:43:00.000Z,99775
2018-10-03T23:48:00.000Z,99782
2018-10-03T23:53:00.000Z,99774
2018-10-03T23:58:00.000Z,99775
